Main page
METAR-TAF:

METAR-TAF

Airports :

K14-fa-1c, Netherlands

Oil platform

latitude: 53-16-10N, longitude: 3-37-40E, elevation: 28 m

Current weather observation

The report was made 43 minutes ago, at 06:25 UTC
Wind 19 kt from the West
Temperature 15°C
Humidity 77%
Pressure 1011 hPa
Visibility 10 km or more
Scattered clouds at a height of 1800 ft
Scattered clouds at a height of 2100 ft

METAR: EHKV 190625Z AUTO 26019KT 9999 SCT018 SCT021 15/11 Q1011

Time: 09:08 (07:08 UTC)


TAF: missing

Weather observations and forecasts of more than 4000 airports (METAR and TAF reports).

The available stations are represented by yellow and red dots on the map.

Hover mouse over dot to see the name of the station.

Then click to see weather observations and forecasts.

To change the map : click on the green buttons with a black cross to zoom in, on the green button with a dash to zoom out, or on the green arrows for adjacent maps.


METAR-TAF: